createdAt,value
2023-03-08T00:00:42.101Z,6.70
2023-03-08T00:03:14.895Z,4.90
2023-03-08T00:05:45.293Z,9.87
2023-03-08T00:08:13.496Z,6.03
2023-03-08T00:10:41.580Z,6.80
2023-03-08T00:13:09.588Z,5.20
2023-03-08T00:15:37.958Z,5.60
2023-03-08T00:18:06.136Z,6.00
2023-03-08T00:20:34.662Z,12.17
2023-03-08T00:23:04.068Z,6.20
2023-03-08T00:25:32.126Z,7.40
2023-03-08T00:28:00.341Z,7.73
2023-03-08T00:30:31.411Z,5.80
2023-03-08T00:32:59.420Z,7.93
2023-03-08T00:35:27.544Z,4.60
2023-03-08T00:37:55.548Z,10.60
2023-03-08T00:40:24.974Z,7.10
2023-03-08T00:42:53.230Z,7.33
2023-03-08T00:45:21.216Z,6.80
2023-03-08T00:47:49.248Z,7.70
2023-03-08T00:50:17.698Z,10.13
2023-03-08T00:52:45.697Z,9.30
2023-03-08T00:55:14.514Z,11.70
2023-03-08T00:57:44.299Z,12.50
2023-03-08T01:00:14.055Z,8.90
2023-03-08T01:02:42.392Z,10.10
2023-03-08T01:05:11.319Z,9.83
2023-03-08T01:07:39.341Z,9.87
2023-03-08T01:10:09.699Z,10.27
2023-03-08T01:12:39.889Z,8.57
2023-03-08T01:15:09.975Z,11.37
2023-03-08T01:17:38.400Z,10.03
2023-03-08T01:20:08.401Z,8.40
2023-03-08T01:22:36.610Z,9.40
2023-03-08T01:25:05.287Z,10.63
2023-03-08T01:27:33.440Z,10.40
2023-03-08T01:30:01.811Z,12.47
2023-03-08T01:32:31.206Z,13.30
2023-03-08T01:35:04.081Z,9.00
2023-03-08T01:37:32.736Z,9.20
2023-03-08T01:40:01.256Z,11.50
2023-03-08T01:42:29.720Z,9.93
2023-03-08T01:44:59.774Z,8.70
2023-03-08T01:47:32.699Z,11.40
2023-03-08T01:50:18.503Z,6.90
2023-03-08T01:52:52.069Z,8.80
2023-03-08T01:55:20.979Z,7.73
2023-03-08T01:57:53.397Z,8.27
2023-03-08T02:00:23.870Z,8.53
2023-03-08T02:02:57.718Z,7.90
2023-03-08T02:05:27.415Z,8.60
2023-03-08T02:08:00.504Z,6.43
2023-03-08T02:10:33.363Z,12.40
2023-03-08T02:13:02.094Z,9.10
2023-03-08T02:15:30.367Z,11.43
2023-03-08T02:18:00.551Z,9.10
2023-03-08T02:20:31.428Z,9.90
2023-03-08T02:23:10.930Z,10.13
2023-03-08T02:25:39.409Z,8.93
2023-03-08T02:28:10.042Z,10.43
2023-03-08T02:30:39.135Z,12.23
2023-03-08T02:33:07.273Z,10.30
2023-03-08T02:35:36.589Z,13.83
2023-03-08T02:38:05.938Z,8.80
2023-03-08T02:40:35.378Z,12.40
2023-03-08T02:43:03.461Z,10.23
2023-03-08T02:45:31.688Z,11.40
2023-03-08T02:47:59.725Z,11.30
2023-03-08T02:50:28.178Z,11.57
2023-03-08T02:52:56.180Z,11.30
2023-03-08T02:55:24.252Z,10.10
2023-03-08T02:57:53.782Z,12.70
2023-03-08T03:00:22.298Z,11.40
2023-03-08T03:02:50.429Z,13.70
2023-03-08T03:05:21.439Z,16.53
2023-03-08T03:07:49.635Z,13.37
2023-03-08T03:10:20.716Z,11.77
2023-03-08T03:12:48.926Z,12.77
2023-03-08T03:15:21.774Z,17.73
2023-03-08T03:17:54.458Z,18.13
2023-03-08T03:20:22.563Z,14.67
2023-03-08T03:22:50.689Z,19.60
2023-03-08T03:25:21.531Z,12.77
2023-03-08T03:27:50.703Z,15.63
2023-03-08T03:30:21.677Z,13.77
2023-03-08T03:32:49.877Z,12.60
2023-03-08T03:35:23.105Z,12.60
2023-03-08T03:37:51.360Z,11.27
2023-03-08T03:40:19.710Z,16.13
2023-03-08T03:42:51.222Z,12.57
2023-03-08T03:45:21.119Z,10.73
2023-03-08T03:47:49.709Z,10.80
2023-03-08T03:50:18.587Z,12.63
2023-03-08T03:53:00.972Z,15.90
2023-03-08T03:55:29.862Z,10.93
2023-03-08T03:57:58.642Z,13.83
2023-03-08T04:00:28.279Z,11.10
2023-03-08T04:03:07.772Z,12.03
2023-03-08T04:05:39.946Z,14.47
2023-03-08T04:08:09.523Z,14.23
2023-03-08T04:10:41.058Z,18.27
2023-03-08T04:13:12.338Z,17.57
2023-03-08T04:15:42.985Z,16.90
2023-03-08T04:18:13.525Z,19.77
2023-03-08T04:20:46.020Z,15.80
2023-03-08T04:23:15.401Z,21.40
2023-03-08T04:25:47.793Z,20.80
2023-03-08T04:28:17.139Z,15.30
2023-03-08T04:30:46.869Z,17.17
2023-03-08T04:33:17.286Z,20.30
2023-03-08T04:35:50.888Z,16.30
2023-03-08T04:38:21.964Z,17.47
2023-03-08T04:41:11.638Z,14.83
2023-03-08T04:43:58.138Z,17.77
2023-03-08T04:46:37.454Z,15.10
2023-03-08T04:49:05.629Z,17.50
2023-03-08T04:51:40.595Z,19.23
2023-03-08T04:54:10.274Z,19.00
2023-03-08T04:56:44.241Z,20.97
2023-03-08T04:59:14.380Z,20.50
2023-03-08T05:01:44.074Z,24.37
2023-03-08T05:04:13.390Z,20.93
2023-03-08T05:06:42.933Z,24.27
2023-03-08T05:09:14.710Z,23.37
2023-03-08T05:11:45.483Z,22.57
2023-03-08T05:14:16.483Z,22.37
2023-03-08T05:16:46.187Z,20.57
2023-03-08T05:19:14.557Z,22.40
2023-03-08T05:21:50.368Z,17.40
2023-03-08T05:24:18.471Z,18.57
2023-03-08T05:26:46.655Z,18.17
2023-03-08T05:29:18.094Z,15.40
2023-03-08T05:31:47.773Z,16.93
2023-03-08T05:34:17.108Z,20.37
2023-03-08T05:36:48.422Z,16.30
2023-03-08T05:39:17.629Z,15.20
2023-03-08T05:41:55.917Z,18.90
2023-03-08T05:44:30.369Z,23.23
2023-03-08T05:47:02.001Z,18.93
2023-03-08T05:49:31.510Z,15.87
2023-03-08T05:52:00.449Z,18.37
2023-03-08T05:54:30.120Z,16.20
2023-03-08T05:57:03.498Z,13.37
2023-03-08T05:59:32.495Z,18.27
2023-03-08T06:02:05.471Z,12.47
2023-03-08T06:04:41.523Z,14.30
2023-03-08T06:07:11.444Z,14.30
2023-03-08T06:09:44.172Z,14.37
2023-03-08T06:12:16.164Z,13.57
2023-03-08T06:14:46.211Z,15.43
2023-03-08T06:17:17.492Z,14.57
2023-03-08T06:19:48.400Z,12.07
2023-03-08T06:22:17.326Z,10.83
2023-03-08T06:24:49.555Z,12.33
2023-03-08T06:27:21.290Z,10.10
2023-03-08T06:29:51.904Z,10.53
2023-03-08T06:32:22.993Z,12.40
2023-03-08T06:34:51.898Z,12.93
2023-03-08T06:37:20.573Z,10.67
2023-03-08T06:39:48.896Z,10.47
2023-03-08T06:42:16.918Z,8.83
2023-03-08T06:44:45.458Z,11.57
2023-03-08T06:47:13.551Z,12.40
2023-03-08T06:49:44.649Z,11.47
2023-03-08T06:52:13.574Z,10.50
2023-03-08T06:54:41.780Z,11.03
2023-03-08T06:57:09.988Z,12.90
2023-03-08T06:59:38.060Z,10.43
2023-03-08T07:02:06.829Z,8.33
2023-03-08T07:04:34.923Z,11.83
2023-03-08T07:07:04.629Z,8.33
2023-03-08T07:09:32.706Z,7.70
2023-03-08T07:12:00.735Z,9.20
2023-03-08T07:14:28.814Z,7.30
2023-03-08T07:16:56.968Z,9.17
2023-03-08T07:19:25.044Z,6.93
2023-03-08T07:21:53.177Z,6.50
2023-03-08T07:24:22.602Z,7.80
2023-03-08T07:26:51.599Z,9.43
2023-03-08T07:29:19.680Z,12.13
2023-03-08T07:31:47.740Z,7.70
2023-03-08T07:34:15.954Z,4.87
2023-03-08T07:36:44.086Z,8.63
2023-03-08T07:39:12.135Z,7.00
2023-03-08T07:41:41.563Z,8.50
2023-03-08T07:44:09.885Z,7.50
2023-03-08T07:46:37.963Z,7.57
2023-03-08T07:49:10.437Z,8.90
2023-03-08T07:51:38.768Z,7.50
2023-03-08T07:54:07.600Z,12.33
2023-03-08T07:56:35.662Z,8.27
2023-03-08T07:59:05.057Z,8.50
2023-03-08T08:01:33.442Z,10.17
2023-03-08T08:04:01.976Z,11.80
2023-03-08T08:06:30.106Z,10.57
2023-03-08T08:08:58.449Z,10.60
2023-03-08T08:11:26.762Z,7.47
2023-03-08T08:13:54.776Z,8.77
2023-03-08T08:16:24.211Z,10.53
2023-03-08T08:18:53.337Z,13.03
2023-03-08T08:21:21.576Z,9.83
2023-03-08T08:23:50.089Z,8.37
2023-03-08T08:26:19.692Z,10.47
2023-03-08T08:28:50.315Z,9.67
2023-03-08T08:31:20.623Z,11.70
2023-03-08T08:33:50.419Z,9.57
2023-03-08T08:36:20.783Z,14.00
2023-03-08T08:38:49.313Z,16.80
2023-03-08T08:41:19.009Z,16.33
2023-03-08T08:43:48.015Z,12.80
2023-03-08T08:46:17.134Z,13.43
2023-03-08T08:48:45.197Z,12.23
2023-03-08T08:51:15.262Z,12.17
2023-03-08T08:53:44.244Z,11.57
2023-03-08T08:56:25.541Z,14.50
2023-03-08T08:58:56.000Z,17.20
2023-03-08T09:01:25.751Z,11.10
2023-03-08T09:03:54.131Z,10.30
2023-03-08T09:06:24.518Z,9.23
2023-03-08T09:08:53.097Z,10.37
2023-03-08T09:11:21.622Z,11.10
2023-03-08T09:13:49.851Z,10.33
2023-03-08T09:16:20.094Z,20.43
2023-03-08T09:18:48.517Z,11.60
2023-03-08T09:21:20.189Z,11.47
2023-03-08T09:23:49.684Z,11.87
2023-03-08T09:26:18.071Z,15.00
2023-03-08T09:28:46.248Z,10.67
2023-03-08T09:31:17.632Z,15.30
2023-03-08T09:33:48.326Z,11.60
2023-03-08T09:36:16.854Z,12.70
2023-03-08T09:38:45.388Z,13.50
2023-03-08T09:41:35.999Z,13.93
2023-03-08T09:44:16.650Z,12.40
2023-03-08T09:46:49.129Z,14.23
2023-03-08T09:49:23.840Z,11.50
2023-03-08T09:51:59.995Z,14.73
2023-03-08T09:54:29.435Z,9.77
2023-03-08T09:56:58.890Z,17.23
2023-03-08T09:59:33.592Z,16.50
2023-03-08T10:02:07.139Z,12.93
2023-03-08T10:05:02.494Z,12.57
2023-03-08T10:07:50.733Z,12.27
2023-03-08T10:10:32.131Z,13.60
2023-03-08T10:13:10.831Z,17.30
2023-03-08T10:15:44.236Z,13.67
2023-03-08T10:18:19.141Z,12.00
2023-03-08T10:20:48.224Z,21.57
2023-03-08T10:23:18.199Z,12.50
2023-03-08T10:25:47.142Z,15.10
2023-03-08T10:28:19.111Z,14.20
2023-03-08T10:30:49.092Z,15.43
2023-03-08T10:33:19.382Z,12.27
2023-03-08T10:36:00.247Z,14.47
2023-03-08T10:38:30.027Z,16.13
2023-03-08T10:41:03.084Z,15.70
2023-03-08T10:43:35.561Z,16.60
2023-03-08T10:46:07.053Z,13.77
2023-03-08T10:48:35.186Z,15.63
2023-03-08T10:51:04.785Z,14.37
2023-03-08T10:53:34.030Z,17.50
2023-03-08T10:56:03.034Z,14.60
2023-03-08T10:58:35.996Z,12.00
2023-03-08T11:01:06.807Z,14.53
2023-03-08T11:03:35.439Z,13.30
2023-03-08T11:06:06.040Z,11.93
2023-03-08T11:08:35.930Z,13.40
2023-03-08T11:11:10.673Z,12.03
2023-03-08T11:13:42.669Z,12.30
2023-03-08T11:16:28.988Z,12.40
2023-03-08T11:19:06.363Z,14.80
2023-03-08T11:21:44.594Z,10.93
2023-03-08T11:24:24.986Z,15.57
2023-03-08T11:27:16.458Z,19.60
2023-03-08T11:30:01.226Z,20.27
2023-03-08T11:32:45.813Z,12.03
2023-03-08T11:35:24.620Z,14.80
2023-03-08T11:38:00.893Z,11.53
2023-03-08T11:40:35.578Z,11.87
2023-03-08T11:43:15.661Z,11.53
2023-03-08T11:45:52.448Z,12.93
2023-03-08T11:49:03.604Z,12.17
2023-03-08T11:51:36.089Z,12.17
2023-03-08T11:54:16.015Z,12.47
2023-03-08T11:56:50.873Z,12.97
2023-03-08T11:59:26.286Z,11.67
2023-03-08T12:02:00.534Z,12.20
2023-03-08T12:04:36.619Z,12.93
2023-03-08T12:07:11.552Z,14.00
2023-03-08T12:09:46.736Z,11.40
2023-03-08T12:12:22.492Z,11.13
2023-03-08T12:14:56.498Z,12.30
2023-03-08T12:17:29.761Z,12.17
2023-03-08T12:19:57.827Z,12.20
2023-03-08T12:22:33.936Z,12.00
2023-03-08T12:25:10.610Z,10.80
2023-03-08T12:27:45.281Z,12.20
2023-03-08T12:30:21.012Z,13.03
2023-03-08T12:32:54.712Z,11.83
2023-03-08T12:35:31.687Z,10.50
2023-03-08T12:38:02.622Z,12.97
2023-03-08T12:40:42.739Z,11.53
2023-03-08T12:43:12.851Z,13.50
2023-03-08T12:45:42.150Z,9.63
2023-03-08T12:48:19.741Z,11.57
2023-03-08T12:51:00.386Z,10.37
2023-03-08T12:53:36.111Z,10.43
2023-03-08T12:56:08.445Z,12.00
2023-03-08T12:58:40.592Z,16.17
2023-03-08T13:01:25.128Z,11.50
2023-03-08T13:03:54.726Z,10.90
2023-03-08T13:07:13.885Z,9.70
2023-03-08T13:09:51.266Z,10.83
2023-03-08T13:12:39.613Z,15.00
2023-03-08T13:15:24.427Z,13.13
2023-03-08T13:17:59.030Z,11.03
2023-03-08T13:20:35.413Z,10.73
2023-03-08T13:23:08.865Z,10.90
2023-03-08T13:25:51.794Z,10.83
2023-03-08T13:28:21.583Z,13.80
2023-03-08T13:30:53.053Z,12.90
2023-03-08T13:33:23.966Z,17.63
2023-03-08T13:36:04.616Z,15.77
2023-03-08T13:38:35.430Z,12.70
2023-03-08T13:41:04.173Z,13.47
2023-03-08T13:43:33.991Z,12.70
2023-03-08T13:46:04.689Z,12.83
2023-03-08T13:48:34.985Z,11.60
2023-03-08T13:51:04.954Z,13.13
2023-03-08T13:53:35.337Z,12.33
2023-03-08T13:56:06.292Z,13.60
2023-03-08T13:58:37.172Z,14.30
2023-03-08T14:01:12.757Z,15.03
2023-03-08T14:03:42.350Z,11.70
2023-03-08T14:06:19.852Z,19.30
2023-03-08T14:08:48.538Z,12.90
2023-03-08T14:11:20.167Z,12.53
2023-03-08T14:13:51.553Z,10.70
2023-03-08T14:16:32.035Z,12.40
2023-03-08T14:19:01.872Z,12.80
2023-03-08T14:21:32.113Z,12.07
2023-03-08T14:24:02.149Z,12.00
2023-03-08T14:26:33.571Z,10.37
2023-03-08T14:29:19.272Z,13.03
2023-03-08T14:32:05.871Z,10.70
2023-03-08T14:34:36.546Z,20.30
2023-03-08T14:37:16.938Z,17.60
2023-03-08T14:39:47.065Z,12.90
2023-03-08T14:42:21.612Z,10.73
2023-03-08T14:44:54.908Z,12.70
2023-03-08T14:47:25.208Z,11.60
2023-03-08T14:49:57.263Z,14.93
2023-03-08T14:52:28.688Z,10.80
2023-03-08T14:54:56.789Z,13.60
2023-03-08T14:57:27.375Z,11.57
2023-03-08T15:00:07.641Z,11.67
2023-03-08T15:02:36.651Z,12.43
2023-03-08T15:05:05.831Z,14.53
2023-03-08T15:07:37.957Z,12.80
2023-03-08T15:10:08.545Z,14.53
2023-03-08T15:12:36.681Z,10.40
2023-03-08T15:15:13.128Z,12.90
2023-03-08T15:17:41.224Z,11.90
2023-03-08T15:20:12.307Z,18.20
2023-03-08T15:22:45.303Z,13.57
2023-03-08T15:25:19.569Z,13.60
2023-03-08T15:27:49.700Z,11.43
2023-03-08T15:30:19.717Z,13.43
2023-03-08T15:32:48.127Z,12.80
2023-03-08T15:35:16.938Z,12.20
2023-03-08T15:37:46.672Z,13.40
2023-03-08T15:40:16.851Z,15.53
2023-03-08T15:42:44.887Z,12.03
2023-03-08T15:45:14.223Z,13.83
2023-03-08T15:47:42.501Z,12.37
2023-03-08T15:50:15.917Z,14.30
2023-03-08T15:52:44.358Z,12.30
2023-03-08T15:55:15.081Z,12.83
2023-03-08T15:57:43.463Z,14.50
2023-03-08T16:00:15.742Z,10.90
2023-03-08T16:02:43.904Z,11.10
2023-03-08T16:05:13.256Z,12.50
2023-03-08T16:07:41.547Z,12.77
2023-03-08T16:10:12.644Z,12.43
2023-03-08T16:12:42.816Z,9.77
2023-03-08T16:15:11.461Z,14.10
2023-03-08T16:17:39.578Z,14.33
2023-03-08T16:20:08.661Z,18.03
2023-03-08T16:22:36.940Z,13.80
2023-03-08T16:25:05.880Z,13.17
2023-03-08T16:27:35.076Z,12.10
2023-03-08T16:30:06.151Z,14.77
2023-03-08T16:32:34.313Z,12.37
2023-03-08T16:35:02.531Z,12.90
2023-03-08T16:37:30.706Z,14.47
2023-03-08T16:40:01.993Z,16.80
2023-03-08T16:42:30.654Z,14.80
2023-03-08T16:44:59.089Z,16.23
2023-03-08T16:47:32.226Z,18.20
2023-03-08T16:50:01.786Z,13.30
2023-03-08T16:52:29.951Z,13.70
2023-03-08T16:54:58.167Z,13.60
2023-03-08T16:57:27.025Z,14.93
2023-03-08T16:59:55.287Z,14.90
2023-03-08T17:02:24.045Z,16.73
2023-03-08T17:04:53.478Z,26.40
2023-03-08T17:07:21.537Z,17.00
2023-03-08T17:09:50.641Z,14.30
2023-03-08T17:12:19.595Z,15.67
2023-03-08T17:14:47.712Z,14.50
2023-03-08T17:17:15.996Z,69.97
2023-03-08T17:19:44.180Z,13.87
2023-03-08T17:22:13.797Z,13.43
2023-03-08T17:24:41.899Z,14.07
2023-03-08T17:27:09.928Z,13.27
2023-03-08T17:29:37.964Z,18.07
2023-03-08T17:32:06.604Z,17.03
2023-03-08T17:34:34.705Z,13.30
2023-03-08T17:37:02.729Z,14.33
2023-03-08T17:39:32.241Z,13.93
2023-03-08T17:42:00.365Z,14.33
2023-03-08T17:44:28.511Z,13.10
2023-03-08T17:46:56.548Z,17.40
2023-03-08T17:49:25.083Z,13.87
2023-03-08T17:51:53.768Z,15.00
2023-03-08T17:54:22.366Z,13.97
2023-03-08T17:56:51.855Z,14.20
2023-03-08T17:59:19.881Z,14.03
2023-03-08T18:01:47.883Z,14.07
2023-03-08T18:04:15.928Z,16.23
2023-03-08T18:06:44.248Z,15.97
2023-03-08T18:09:14.458Z,15.47
2023-03-08T18:11:43.328Z,12.83
2023-03-08T18:14:16.746Z,18.17
2023-03-08T18:16:45.429Z,16.33
2023-03-08T18:19:13.472Z,14.83
2023-03-08T18:21:41.869Z,14.10
2023-03-08T18:24:12.107Z,15.60
2023-03-08T18:26:40.184Z,15.23
2023-03-08T18:29:08.244Z,15.13
2023-03-08T18:31:38.614Z,17.47
2023-03-08T18:34:06.796Z,16.50
2023-03-08T18:36:35.608Z,48.90
2023-03-08T18:39:05.846Z,25.03
2023-03-08T18:41:34.571Z,14.80
2023-03-08T18:44:02.623Z,18.60
2023-03-08T18:46:32.352Z,14.63
2023-03-08T18:49:03.437Z,14.77
2023-03-08T18:51:33.182Z,16.37
2023-03-08T18:54:01.947Z,19.10
2023-03-08T18:56:30.610Z,18.40
2023-03-08T18:59:02.711Z,18.30
2023-03-08T19:01:31.393Z,20.43
2023-03-08T19:04:06.056Z,18.00
2023-03-08T19:06:34.524Z,16.10
2023-03-08T19:09:08.930Z,20.50
2023-03-08T19:11:36.972Z,17.60
2023-03-08T19:14:05.112Z,18.10
2023-03-08T19:16:35.503Z,17.20
2023-03-08T19:19:07.440Z,19.83
2023-03-08T19:21:38.865Z,19.57
2023-03-08T19:24:07.265Z,17.43
2023-03-08T19:26:41.289Z,17.27
2023-03-08T19:29:12.513Z,17.63
2023-03-08T19:31:42.662Z,17.70
2023-03-08T19:34:13.344Z,21.80
2023-03-08T19:36:42.468Z,19.43
2023-03-08T19:39:13.119Z,16.97
2023-03-08T19:41:41.714Z,19.10
2023-03-08T19:44:09.941Z,23.40
2023-03-08T19:46:39.596Z,19.03
2023-03-08T19:49:13.533Z,25.13
2023-03-08T19:51:41.905Z,18.70
2023-03-08T19:54:10.252Z,19.30
2023-03-08T19:56:38.517Z,18.77
2023-03-08T19:59:07.664Z,17.80
2023-03-08T20:01:36.202Z,20.30
2023-03-08T20:04:04.680Z,19.90
2023-03-08T20:06:36.384Z,18.20
2023-03-08T20:09:06.274Z,23.20
2023-03-08T20:11:34.474Z,20.53
2023-03-08T20:14:02.648Z,19.97
2023-03-08T20:16:32.030Z,23.63
2023-03-08T20:19:00.596Z,24.00
2023-03-08T20:21:31.509Z,22.30
2023-03-08T20:24:01.237Z,23.53
2023-03-08T20:26:31.739Z,25.93
2023-03-08T20:29:00.538Z,23.13
2023-03-08T20:31:30.661Z,19.80
2023-03-08T20:33:59.229Z,21.50
2023-03-08T20:36:28.365Z,24.17
2023-03-08T20:38:57.737Z,27.23
2023-03-08T20:41:27.955Z,29.13
2023-03-08T20:43:56.311Z,23.33
2023-03-08T20:46:26.181Z,31.97
2023-03-08T20:48:54.776Z,36.57
2023-03-08T20:51:24.129Z,28.57
2023-03-08T20:53:54.958Z,33.43
2023-03-08T20:56:25.084Z,31.50
2023-03-08T20:58:56.971Z,28.43
2023-03-08T21:01:26.775Z,24.00
2023-03-08T21:03:55.115Z,26.30
2023-03-08T21:06:25.507Z,25.47
2023-03-08T21:08:54.204Z,25.67
2023-03-08T21:11:23.763Z,32.63
2023-03-08T21:13:55.528Z,34.87
2023-03-08T21:16:25.947Z,26.40
2023-03-08T21:18:55.768Z,26.27
2023-03-08T21:21:27.355Z,26.47
2023-03-08T21:23:57.950Z,27.90
2023-03-08T21:26:27.387Z,29.00
2023-03-08T21:28:59.164Z,27.23
2023-03-08T21:31:27.705Z,25.03
2023-03-08T21:33:56.031Z,29.70
2023-03-08T21:36:25.484Z,26.80
2023-03-08T21:38:54.507Z,23.90
2023-03-08T21:41:24.706Z,22.10
2023-03-08T21:43:53.015Z,27.30
2023-03-08T21:46:23.069Z,28.43
2023-03-08T21:48:51.458Z,24.10
2023-03-08T21:51:19.542Z,29.00
2023-03-08T21:53:47.585Z,24.00
2023-03-08T21:56:17.746Z,24.13
2023-03-08T21:58:46.389Z,26.40
2023-03-08T22:01:20.925Z,29.50
2023-03-08T22:03:50.817Z,26.80
2023-03-08T22:06:19.064Z,26.10
2023-03-08T22:08:48.039Z,25.33
2023-03-08T22:11:16.669Z,25.13
2023-03-08T22:13:44.763Z,29.20
2023-03-08T22:16:12.939Z,25.77
2023-03-08T22:18:41.014Z,29.27
2023-03-08T22:21:10.431Z,33.07
2023-03-08T22:23:38.587Z,29.40
2023-03-08T22:26:08.871Z,27.53
2023-03-08T22:28:38.191Z,25.10
2023-03-08T22:31:11.244Z,24.87
2023-03-08T22:33:40.017Z,24.30
2023-03-08T22:36:12.101Z,29.73
2023-03-08T22:38:40.886Z,28.80
2023-03-08T22:41:13.495Z,26.80
2023-03-08T22:43:42.090Z,31.67
2023-03-08T22:46:13.022Z,28.77
2023-03-08T22:48:41.142Z,25.10
2023-03-08T22:51:11.392Z,28.87
2023-03-08T22:53:41.811Z,28.10
2023-03-08T22:56:18.909Z,25.80
2023-03-08T22:58:47.151Z,30.00
2023-03-08T23:01:17.023Z,25.70
2023-03-08T23:03:46.193Z,26.00
2023-03-08T23:06:14.226Z,24.47
2023-03-08T23:08:43.610Z,30.67
2023-03-08T23:11:12.458Z,29.90
2023-03-08T23:13:41.146Z,38.17
2023-03-08T23:16:12.566Z,34.23
2023-03-08T23:18:40.996Z,29.00
2023-03-08T23:21:11.011Z,24.30
2023-03-08T23:23:39.519Z,23.80
2023-03-08T23:26:11.985Z,24.13
2023-03-08T23:28:41.250Z,26.90
2023-03-08T23:31:10.784Z,29.83
2023-03-08T23:33:39.366Z,27.00
2023-03-08T23:36:08.419Z,26.50
2023-03-08T23:38:36.567Z,27.03
2023-03-08T23:41:05.855Z,27.27
2023-03-08T23:43:36.034Z,26.40
2023-03-08T23:46:07.433Z,27.67
2023-03-08T23:48:35.825Z,26.50
2023-03-08T23:51:04.819Z,23.77
2023-03-08T23:53:32.838Z,28.90
2023-03-08T23:56:01.160Z,25.73
2023-03-08T23:58:29.571Z,25.70
